Time;durP1;ratioP1;P1;durP2;ratioP2;P2;SDS_P1;SDS_P2;PMS_P1;PMS_P2;Temp;Humidity;BMP_temperature;BMP_pressure;BME280_temperature;BME280_humidity;BME280_pressure;Samples;Min_cycle;Max_cycle;Signal;HPM_P1;HPM_P2
2023/09/27 00:00:08;;;;;;;1.70;1.70;;;21.50;75.10;;;;;;5090869;28;43607;-66
2023/09/27 00:02:39;;;;;;;1.60;1.60;;;21.40;75.50;;;;;;5088648;28;43968;-65
2023/09/27 00:05:10;;;;;;;1.50;1.50;;;21.40;75.70;;;;;;5083293;28;43363;-65
2023/09/27 00:07:41;;;;;;;1.60;1.60;;;21.40;75.60;;;;;;5071192;28;43411;-66
2023/09/27 00:10:10;;;;;;;1.50;1.50;;;21.30;75.70;;;;;;5077579;28;43671;-67
2023/09/27 00:12:39;;;;;;;1.70;1.70;;;21.30;75.90;;;;;;5074671;28;43501;-66
2023/09/27 00:15:11;;;;;;;1.43;1.43;;;21.20;76.20;;;;;;5063365;28;43451;-66
2023/09/27 00:17:40;;;;;;;1.67;1.67;;;21.20;76.10;;;;;;5061194;28;43749;-66
2023/09/27 00:20:15;;;;;;;1.70;1.70;;;21.20;76.20;;;;;;5084843;28;43740;-65
2023/09/27 00:22:46;;;;;;;1.57;1.57;;;21.20;76.20;;;;;;5085242;28;43673;-66
2023/09/27 00:25:14;;;;;;;1.40;1.40;;;21.20;76.60;;;;;;5084229;28;43455;-66
2023/09/27 00:27:42;;;;;;;1.50;1.50;;;21.20;76.50;;;;;;5089168;28;43515;-65
2023/09/27 00:30:14;;;;;;;1.60;1.60;;;21.30;76.20;;;;;;5069008;28;46133;-70
2023/09/27 00:32:44;;;;;;;1.40;1.40;;;21.40;75.80;;;;;;5064983;28;44752;-70
2023/09/27 00:35:18;;;;;;;1.70;1.70;;;21.50;75.30;;;;;;5060755;28;43321;-70
2023/09/27 00:37:49;;;;;;;1.70;1.70;;;21.50;75.00;;;;;;5079231;28;43908;-70
2023/09/27 00:40:18;;;;;;;1.50;1.50;;;21.50;75.00;;;;;;5060045;28;45744;-71
2023/09/27 00:42:47;;;;;;;1.40;1.40;;;21.50;75.30;;;;;;5080440;28;44058;-70
2023/09/27 00:45:16;;;;;;;1.60;1.60;;;21.40;75.50;;;;;;5084370;28;43412;-70
2023/09/27 00:47:45;;;;;;;1.80;1.80;;;21.30;75.70;;;;;;5062495;28;43487;-70
2023/09/27 00:50:13;;;;;;;1.60;1.60;;;21.30;75.70;;;;;;5085821;28;44584;-70
2023/09/27 00:52:41;;;;;;;1.50;1.50;;;21.30;75.80;;;;;;5060382;28;45145;-70
2023/09/27 00:55:12;;;;;;;1.43;1.43;;;21.20;75.90;;;;;;5061904;28;43825;-70
2023/09/27 00:57:41;;;;;;;1.60;1.60;;;21.20;76.10;;;;;;5081308;28;44011;-71
2023/09/27 01:00:10;;;;;;;1.30;1.30;;;21.20;76.40;;;;;;5082203;28;43591;-70
2023/09/27 01:02:39;;;;;;;1.53;1.53;;;21.20;76.30;;;;;;5085060;28;43465;-70
2023/09/27 01:05:09;;;;;;;1.30;1.30;;;21.20;76.20;;;;;;5063972;28;43446;-70
2023/09/27 01:07:38;;;;;;;1.50;1.50;;;21.20;76.30;;;;;;5069298;28;43406;-70
2023/09/27 01:10:08;;;;;;;1.60;1.60;;;21.10;76.40;;;;;;5059020;28;45709;-70
2023/09/27 01:12:38;;;;;;;1.70;1.70;;;21.10;76.60;;;;;;5063678;28;43333;-70
2023/09/27 01:15:07;;;;;;;1.60;1.60;;;21.20;76.30;;;;;;5072278;28;43465;-70
2023/09/27 01:17:35;;;;;;;1.70;1.70;;;21.30;75.90;;;;;;5074539;28;43381;-70
2023/09/27 01:20:08;;;;;;;1.60;1.60;;;21.50;75.40;;;;;;5057780;28;45541;-70
2023/09/27 01:22:36;;;;;;;1.67;1.67;;;21.60;75.00;;;;;;5052896;28;45061;-70
2023/09/27 01:25:06;;;;;;;1.50;1.50;;;21.60;74.90;;;;;;5058023;27;43412;-70
2023/09/27 01:27:34;;;;;;;1.43;1.43;;;21.50;74.90;;;;;;5062273;28;43519;-70
2023/09/27 01:30:05;;;;;;;1.67;1.67;;;21.50;75.20;;;;;;5062759;28;45307;-70
2023/09/27 01:32:33;;;;;;;1.50;1.50;;;21.40;75.50;;;;;;5061565;28;45000;-70
2023/09/27 01:35:02;;;;;;;1.43;1.43;;;21.40;75.70;;;;;;5064765;28;43411;-73
2023/09/27 01:37:33;;;;;;;1.60;1.60;;;21.30;75.60;;;;;;5082587;28;43972;-70
2023/09/27 01:40:01;;;;;;;1.70;1.70;;;21.30;75.70;;;;;;5077282;28;43875;-70
2023/09/27 01:42:30;;;;;;;1.50;1.50;;;21.20;75.90;;;;;;5065499;28;43733;-69
2023/09/27 01:44:58;;;;;;;1.40;1.40;;;21.20;76.20;;;;;;5062858;28;43460;-70
2023/09/27 01:47:26;;;;;;;1.50;1.50;;;21.20;76.20;;;;;;5045617;28;43480;-70
2023/09/27 01:49:55;;;;;;;1.50;1.50;;;21.20;76.20;;;;;;5084551;28;43630;-70
2023/09/27 01:52:23;;;;;;;1.47;1.47;;;21.20;76.20;;;;;;5066537;28;44685;-70
2023/09/27 01:54:51;;;;;;;1.50;1.50;;;21.20;76.20;;;;;;5062582;28;43975;-69
2023/09/27 01:57:19;;;;;;;1.43;1.43;;;21.10;76.60;;;;;;5062438;28;43619;-70
2023/09/27 01:59:48;;;;;;;1.80;1.80;;;21.10;76.40;;;;;;5065534;28;46111;-69
2023/09/27 02:02:16;;;;;;;1.70;1.70;;;21.10;76.30;;;;;;5064165;28;45126;-70
2023/09/27 02:04:44;;;;;;;1.50;1.50;;;21.10;76.30;;;;;;5066930;28;43387;-70
2023/09/27 02:07:12;;;;;;;1.70;1.70;;;21.10;76.40;;;;;;5086252;28;43856;-70
2023/09/27 02:09:40;;;;;;;1.73;1.73;;;21.10;76.70;;;;;;5064883;28;44675;-70
2023/09/27 02:12:09;;;;;;;1.40;1.40;;;21.20;76.60;;;;;;5069332;28;44403;-70
2023/09/27 02:14:37;;;;;;;1.40;1.40;;;21.20;76.00;;;;;;5065839;28;43530;-69
2023/09/27 02:17:07;;;;;;;1.70;1.70;;;21.40;75.60;;;;;;5068216;28;43435;-70
2023/09/27 02:19:36;;;;;;;1.43;1.43;;;21.50;75.10;;;;;;5066879;28;46018;-69
2023/09/27 02:22:04;;;;;;;1.63;1.63;;;21.60;74.90;;;;;;5067970;28;43519;-70
2023/09/27 02:24:33;;;;;;;1.70;1.70;;;21.50;74.80;;;;;;5063687;28;43433;-70
2023/09/27 02:27:01;;;;;;;1.40;1.40;;;21.50;75.10;;;;;;5063761;28;43699;-70
2023/09/27 02:29:29;;;;;;;1.70;1.70;;;21.40;75.40;;;;;;5066920;28;45948;-70
2023/09/27 02:31:57;;;;;;;1.70;1.70;;;21.40;75.70;;;;;;5089267;28;43363;-70
2023/09/27 02:34:28;;;;;;;1.50;1.50;;;21.30;75.60;;;;;;5067288;28;43756;-74
2023/09/27 02:36:56;;;;;;;1.53;1.53;;;21.30;75.70;;;;;;5055437;28;43624;-70
2023/09/27 02:39:24;;;;;;;1.50;1.50;;;21.30;75.90;;;;;;5070208;28;47243;-70
2023/09/27 02:41:52;;;;;;;1.50;1.50;;;21.20;76.20;;;;;;5053655;28;45295;-70
2023/09/27 02:44:21;;;;;;;1.50;1.50;;;21.20;76.10;;;;;;5046572;28;43974;-70
2023/09/27 02:46:49;;;;;;;1.43;1.43;;;21.20;76.10;;;;;;5066846;28;43988;-70
2023/09/27 02:49:17;;;;;;;1.40;1.40;;;21.20;76.10;;;;;;5058856;28;45677;-70
2023/09/27 02:51:47;;;;;;;1.53;1.53;;;21.20;76.20;;;;;;5080275;28;43452;-70
2023/09/27 02:54:15;;;;;;;1.40;1.40;;;21.10;76.50;;;;;;5070325;28;43580;-70
2023/09/27 02:56:44;;;;;;;1.57;1.57;;;21.10;76.40;;;;;;5063967;28;44100;-69
2023/09/27 02:59:12;;;;;;;1.40;1.40;;;21.10;76.20;;;;;;5067835;28;45359;-69
2023/09/27 03:01:41;;;;;;;1.40;1.40;;;21.10;76.20;;;;;;5081928;28;43503;-69
2023/09/27 03:04:10;;;;;;;1.40;1.40;;;21.10;76.40;;;;;;5066690;28;43409;-70
2023/09/27 03:06:39;;;;;;;1.60;1.60;;;21.10;76.70;;;;;;5065692;28;43470;-70
2023/09/27 03:09:10;;;;;;;1.23;1.23;;;21.10;76.40;;;;;;5061026;28;46111;-69
2023/09/27 03:11:39;;;;;;;1.50;1.50;;;21.30;76.10;;;;;;5060047;28;44847;-70
2023/09/27 03:14:07;;;;;;;1.40;1.40;;;21.40;75.60;;;;;;5059522;28;43430;-69
2023/09/27 03:16:39;;;;;;;1.60;1.60;;;21.50;74.90;;;;;;5059079;28;43957;-69
2023/09/27 03:19:07;;;;;;;1.60;1.60;;;21.60;74.60;;;;;;5051857;28;45104;-69
2023/09/27 03:21:35;;;;;;;1.60;1.50;;;21.60;74.50;;;;;;5080146;28;45019;-69
2023/09/27 03:24:04;;;;;;;1.40;1.40;;;21.50;74.60;;;;;;5064126;28;43455;-70
2023/09/27 03:26:33;;;;;;;1.40;1.40;;;21.50;75.00;;;;;;5082278;28;43344;-70
2023/09/27 03:29:01;;;;;;;1.60;1.60;;;21.40;75.40;;;;;;5063494;28;44716;-70
2023/09/27 03:31:31;;;;;;;1.50;1.50;;;21.40;75.40;;;;;;5065372;28;44626;-70
2023/09/27 03:33:59;;;;;;;1.53;1.53;;;21.30;75.40;;;;;;5068035;28;43396;-70
2023/09/27 03:36:28;;;;;;;1.40;1.40;;;21.30;75.60;;;;;;5069916;28;43626;-70
2023/09/27 03:38:56;;;;;;;1.60;1.60;;;21.20;75.80;;;;;;5056932;28;45742;-76
2023/09/27 03:41:25;;;;;;;1.60;1.60;;;21.20;76.10;;;;;;5066941;28;44434;-70
2023/09/27 03:43:55;;;;;;;1.53;1.53;;;21.20;76.00;;;;;;5051334;28;43572;-70
2023/09/27 03:46:24;;;;;;;1.50;1.50;;;21.20;76.10;;;;;;5079628;28;43512;-70
2023/09/27 03:48:52;;;;;;;1.50;1.50;;;21.20;76.90;;;;;;5086981;28;46012;-70
2023/09/27 03:51:25;;;;;;;1.67;1.67;;;21.20;76.50;;;;;;5061875;28;43729;-70
2023/09/27 03:53:53;;;;;;;1.50;1.50;;;21.20;77.10;;;;;;5066233;28;44083;-70
2023/09/27 03:56:22;;;;;;;1.50;1.50;;;21.20;76.00;;;;;;5082322;28;43977;-70
2023/09/27 03:58:50;;;;;;;1.43;1.43;;;21.40;75.70;;;;;;5060014;28;45694;-72
2023/09/27 04:01:21;;;;;;;1.57;1.57;;;21.50;75.10;;;;;;5067889;28;43986;-67
2023/09/27 04:03:49;;;;;;;1.57;1.57;;;21.50;74.70;;;;;;5059401;28;43416;-67
2023/09/27 04:06:17;;;;;;;1.50;1.50;;;21.50;74.80;;;;;;5070034;28;43559;-66
2023/09/27 04:08:46;;;;;;;1.53;1.53;;;21.50;75.00;;;;;;5072590;28;46109;-66
2023/09/27 04:11:14;;;;;;;1.60;1.60;;;21.40;75.20;;;;;;5071933;28;44959;-67
2023/09/27 04:13:42;;;;;;;1.67;1.67;;;21.30;75.50;;;;;;5090953;28;43408;-68
2023/09/27 04:16:10;;;;;;;1.40;1.40;;;21.30;75.50;;;;;;5069324;28;43506;-66
2023/09/27 04:18:39;;;;;;;1.60;1.60;;;21.30;75.60;;;;;;5088892;28;43631;-65
2023/09/27 04:21:08;;;;;;;1.40;1.40;;;21.30;75.70;;;;;;5089336;28;44118;-66
2023/09/27 04:23:36;;;;;;;1.53;1.53;;;21.20;75.90;;;;;;5088195;28;43439;-67
2023/09/27 04:26:05;;;;;;;2.30;1.67;;;21.20;76.10;;;;;;5077372;28;43497;-67
2023/09/27 04:28:34;;;;;;;10.50;2.30;;;21.20;76.00;;;;;;5088574;28;43825;-67
2023/09/27 04:31:03;;;;;;;11.27;2.63;;;21.30;74.00;;;;;;5087135;28;43399;-67
2023/09/27 04:33:32;;;;;;;6.30;1.93;;;21.40;74.10;;;;;;5088059;28;43467;-66
2023/09/27 04:36:01;;;;;;;1.60;1.60;;;21.50;74.90;;;;;;5068074;28;43568;-66
2023/09/27 04:38:29;;;;;;;5.80;1.80;;;21.50;74.30;;;;;;5092101;28;43603;-66
2023/09/27 04:40:58;;;;;;;2.80;1.87;;;21.50;74.50;;;;;;5085836;28;43424;-66
2023/09/27 04:43:26;;;;;;;3.10;2.00;;;21.40;74.60;;;;;;5081998;28;43777;-70
2023/09/27 04:45:54;;;;;;;4.70;2.03;;;21.30;75.00;;;;;;5084031;28;43375;-66
2023/09/27 04:48:22;;;;;;;3.10;1.93;;;21.30;75.00;;;;;;5070498;28;45687;-66
2023/09/27 04:50:50;;;;;;;5.40;1.93;;;21.30;75.10;;;;;;5083867;28;43380;-66
2023/09/27 04:53:20;;;;;;;1.97;1.77;;;21.30;75.00;;;;;;5086374;28;43418;-66
2023/09/27 04:55:48;;;;;;;3.67;1.90;;;21.20;75.20;;;;;;5084391;28;43415;-66
2023/09/27 04:58:16;;;;;;;3.50;1.70;;;21.20;75.70;;;;;;5081070;28;43619;-67
2023/09/27 05:00:44;;;;;;;2.50;1.80;;;21.20;76.30;;;;;;5091712;28;43436;-66
2023/09/27 05:03:12;;;;;;;4.93;2.37;;;21.20;76.10;;;;;;5085056;27;43412;-66
2023/09/27 05:05:41;;;;;;;4.00;2.00;;;21.20;75.40;;;;;;5083003;28;43381;-66
2023/09/27 05:08:09;;;;;;;2.40;1.80;;;21.20;75.60;;;;;;5068042;28;43781;-66
2023/09/27 05:10:38;;;;;;;1.83;1.73;;;21.20;76.00;;;;;;5080260;28;43392;-69
2023/09/27 05:13:06;;;;;;;3.13;1.90;;;21.20;75.80;;;;;;5078778;28;43337;-69
2023/09/27 05:15:34;;;;;;;1.80;1.80;;;21.30;75.40;;;;;;5074287;28;43629;-70
2023/09/27 05:18:02;;;;;;;3.90;2.00;;;21.50;75.00;;;;;;5100544;28;43955;-70
2023/09/27 05:20:30;;;;;;;1.93;1.83;;;21.60;74.60;;;;;;5085448;28;43413;-70
2023/09/27 05:22:58;;;;;;;2.00;1.90;;;21.60;74.50;;;;;;5106784;28;43474;-70
2023/09/27 05:25:27;;;;;;;2.57;1.97;;;21.50;74.40;;;;;;5089277;28;43555;-70
2023/09/27 05:27:57;;;;;;;1.70;1.70;;;21.50;74.60;;;;;;5091833;28;43597;-70
2023/09/27 05:30:25;;;;;;;2.90;1.80;;;21.40;75.10;;;;;;5104515;28;43323;-70
2023/09/27 05:32:53;;;;;;;1.70;1.70;;;21.40;75.50;;;;;;5105273;28;43397;-69
2023/09/27 05:35:22;;;;;;;1.87;1.77;;;21.40;75.50;;;;;;5089332;28;43519;-70
2023/09/27 05:37:52;;;;;;;1.80;1.70;;;21.30;75.30;;;;;;5083109;28;45387;-70
2023/09/27 05:40:20;;;;;;;3.07;2.10;;;21.30;75.50;;;;;;5103061;28;43465;-70
2023/09/27 05:42:48;;;;;;;2.20;2.10;;;21.30;76.00;;;;;;5098887;28;43388;-70
2023/09/27 05:45:18;;;;;;;1.90;1.80;;;21.20;76.20;;;;;;5103534;28;43345;-70
2023/09/27 05:47:46;;;;;;;1.80;1.80;;;21.20;76.10;;;;;;5106308;28;43846;-70
2023/09/27 05:50:14;;;;;;;1.73;1.73;;;21.20;75.90;;;;;;5106744;28;43437;-70
2023/09/27 05:52:43;;;;;;;1.73;1.73;;;21.20;76.00;;;;;;5083834;28;43382;-70
2023/09/27 05:55:12;;;;;;;2.33;2.10;;;21.20;76.60;;;;;;5101907;28;43498;-70
2023/09/27 05:57:40;;;;;;;2.03;1.93;;;21.20;76.60;;;;;;5092605;28;45375;-70
2023/09/27 06:00:19;;;;;;;2.50;2.40;;;21.30;77.00;;;;;;5088042;28;43494;-70
2023/09/27 06:02:48;;;;;;;2.30;2.10;;;21.40;75.80;;;;;;5091449;28;43382;-70
2023/09/27 06:05:16;;;;;;;2.00;2.00;;;21.50;75.30;;;;;;5079015;28;43794;-70
2023/09/27 06:07:47;;;;;;;2.33;2.23;;;21.50;75.00;;;;;;5092845;28;43676;-70
2023/09/27 06:10:19;;;;;;;1.90;1.90;;;21.50;75.00;;;;;;5101650;28;43467;-69
2023/09/27 06:12:47;;;;;;;2.10;2.10;;;21.50;75.20;;;;;;5078849;28;43399;-68
2023/09/27 06:15:17;;;;;;;2.67;2.47;;;21.40;75.60;;;;;;5103447;28;43363;-69
2023/09/27 06:17:45;;;;;;;2.00;1.90;;;21.30;75.90;;;;;;5084921;28;45808;-68
2023/09/27 06:20:20;;;;;;;2.27;2.20;;;21.30;75.90;;;;;;5093508;28;43407;-69
2023/09/27 06:22:49;;;;;;;2.47;2.37;;;21.30;75.90;;;;;;5065435;28;43974;-71
2023/09/27 06:25:17;;;;;;;2.27;2.17;;;21.20;76.00;;;;;;5085952;28;43458;-71
2023/09/27 06:27:46;;;;;;;2.13;2.13;;;21.20;76.60;;;;;;5077277;28;43684;-70
2023/09/27 06:30:15;;;;;;;1.97;1.97;;;21.20;76.60;;;;;;5086077;28;43472;-69
2023/09/27 06:32:44;;;;;;;2.13;2.03;;;21.20;76.50;;;;;;5082307;28;43471;-70
2023/09/27 06:35:14;;;;;;;2.20;2.10;;;21.20;76.20;;;;;;5089004;28;43387;-70
2023/09/27 06:37:48;;;;;;;1.90;1.90;;;21.20;76.40;;;;;;5084769;28;43850;-70
2023/09/27 06:40:17;;;;;;;2.20;2.10;;;21.10;76.70;;;;;;5080457;28;44040;-71
2023/09/27 06:42:45;;;;;;;2.20;2.03;;;21.10;76.70;;;;;;5083009;28;43362;-70
2023/09/27 06:45:14;;;;;;;2.07;2.00;;;21.20;76.40;;;;;;5088757;28;43928;-70
2023/09/27 06:47:44;;;;;;;2.10;2.10;;;21.40;76.10;;;;;;5062324;28;45620;-70
2023/09/27 06:50:13;;;;;;;2.30;2.20;;;21.50;75.50;;;;;;5086212;28;43405;-70
2023/09/27 06:52:41;;;;;;;2.00;2.00;;;21.60;75.10;;;;;;5066529;28;43362;-70
2023/09/27 06:55:11;;;;;;;1.93;1.93;;;21.60;75.10;;;;;;5077463;28;43444;-70
2023/09/27 06:57:40;;;;;;;2.00;2.00;;;21.50;75.00;;;;;;5077802;28;43619;-71
2023/09/27 07:00:13;;;;;;;2.13;2.03;;;21.40;75.20;;;;;;5083339;28;43897;-70
2023/09/27 07:02:42;;;;;;;1.87;1.80;;;21.40;75.80;;;;;;5079548;28;43376;-70
2023/09/27 07:05:11;;;;;;;2.23;2.20;;;21.30;75.70;;;;;;5082265;28;43996;-70
2023/09/27 07:07:40;;;;;;;2.43;2.23;;;21.30;75.70;;;;;;5082112;28;43988;-70
2023/09/27 07:10:10;;;;;;;2.20;2.10;;;21.30;75.80;;;;;;5081303;28;43974;-70
2023/09/27 07:12:38;;;;;;;4.20;2.90;;;21.20;75.90;;;;;;5085970;28;43427;-70
2023/09/27 07:15:09;;;;;;;4.60;3.10;;;21.20;76.40;;;;;;5083437;28;43565;-70
2023/09/27 07:17:38;;;;;;;3.63;3.23;;;21.20;76.30;;;;;;5072654;28;43947;-70
2023/09/27 07:20:20;;;;;;;3.20;3.00;;;21.20;76.20;;;;;;5059135;28;43673;-70
2023/09/27 07:22:48;;;;;;;2.90;2.70;;;21.20;76.20;;;;;;5086496;28;43490;-70
2023/09/27 07:25:19;;;;;;;3.63;3.33;;;21.20;76.30;;;;;;5066534;28;43987;-70
2023/09/27 07:27:49;;;;;;;3.40;3.10;;;21.10;76.70;;;;;;5079143;28;43840;-70
2023/09/27 07:30:23;;;;;;;5.17;3.90;;;21.20;76.70;;;;;;5085363;28;43354;-72
2023/09/27 07:32:51;;;;;;;5.27;3.70;;;21.30;76.30;;;;;;5081799;28;44308;-72
2023/09/27 07:35:21;;;;;;;5.70;3.63;;;21.40;75.80;;;;;;5083430;28;43494;-71
2023/09/27 07:37:49;;;;;;;3.60;3.30;;;21.50;75.30;;;;;;5081424;28;46264;-72
2023/09/27 07:40:19;;;;;;;3.60;3.30;;;21.50;75.10;;;;;;5084632;28;43352;-72
2023/09/27 07:42:47;;;;;;;3.30;3.10;;;21.50;75.20;;;;;;5061677;28;44009;-72
2023/09/27 07:45:21;;;;;;;3.50;3.23;;;21.50;75.30;;;;;;5083437;28;43534;-72
2023/09/27 07:47:51;;;;;;;4.00;3.70;;;21.40;75.50;;;;;;5079190;28;43608;-71
2023/09/27 07:50:20;;;;;;;4.13;3.70;;;21.30;75.80;;;;;;5085216;28;43560;-71
2023/09/27 07:52:48;;;;;;;3.30;3.10;;;21.30;75.90;;;;;;5058494;28;43592;-71
2023/09/27 07:55:17;;;;;;;3.50;3.20;;;21.30;75.90;;;;;;5081792;28;43471;-72
2023/09/27 07:57:47;;;;;;;5.13;3.63;;;21.20;76.00;;;;;;5082259;28;43769;-71
2023/09/27 08:00:18;;;;;;;3.97;3.63;;;21.20;76.50;;;;;;5070044;28;43519;-72
2023/09/27 08:02:46;;;;;;;4.60;3.93;;;21.20;76.50;;;;;;5070710;28;43515;-72
2023/09/27 08:05:16;;;;;;;4.43;3.73;;;21.20;76.30;;;;;;5070013;28;43451;-72
2023/09/27 08:07:45;;;;;;;3.90;3.53;;;21.20;76.30;;;;;;5072309;28;43996;-71
2023/09/27 08:10:13;;;;;;;3.93;3.57;;;21.20;76.40;;;;;;5049251;28;45141;-71
2023/09/27 08:12:44;;;;;;;5.00;3.63;;;21.10;76.70;;;;;;5072641;28;43357;-72
2023/09/27 08:15:13;;;;;;;4.63;4.07;;;21.10;76.70;;;;;;5082896;28;43462;-71
2023/09/27 08:17:43;;;;;;;3.70;3.40;;;21.10;76.60;;;;;;5088040;28;43594;-72
2023/09/27 08:20:12;;;;;;;4.07;3.57;;;21.10;76.50;;;;;;5076076;28;43419;-71
2023/09/27 08:22:40;;;;;;;4.10;3.70;;;21.10;76.60;;;;;;5082295;28;43440;-73
2023/09/27 08:25:14;;;;;;;4.57;3.50;;;21.10;77.00;;;;;;5084767;28;43529;-72
2023/09/27 08:27:42;;;;;;;3.80;3.50;;;21.10;77.00;;;;;;5085596;28;43829;-72
2023/09/27 08:30:13;;;;;;;5.17;4.40;;;21.20;76.60;;;;;;5083850;28;43546;-72
2023/09/27 08:32:41;;;;;;;4.07;3.77;;;21.30;76.20;;;;;;5084805;28;43495;-72
2023/09/27 08:35:10;;;;;;;4.67;3.63;;;21.40;75.70;;;;;;5081436;28;43574;-72
2023/09/27 08:37:39;;;;;;;4.63;3.90;;;21.50;75.30;;;;;;5065317;28;45746;-71
2023/09/27 08:40:12;;;;;;;3.57;3.23;;;21.50;75.20;;;;;;5085560;28;43483;-67
2023/09/27 08:42:41;;;;;;;5.07;3.80;;;21.50;75.20;;;;;;5087953;28;43345;-66
2023/09/27 08:45:13;;;;;;;3.80;3.50;;;21.40;75.40;;;;;;5091686;28;43804;-66
2023/09/27 08:47:42;;;;;;;3.87;3.53;;;21.30;75.90;;;;;;5089107;28;43820;-66
2023/09/27 08:50:12;;;;;;;4.57;3.67;;;21.30;75.90;;;;;;5089707;28;43348;-66
2023/09/27 08:52:42;;;;;;;3.60;3.40;;;21.30;75.90;;;;;;5088209;28;43346;-66
2023/09/27 08:55:12;;;;;;;3.70;3.50;;;21.30;76.00;;;;;;5087642;28;43495;-66
2023/09/27 08:57:44;;;;;;;3.40;3.10;;;21.20;76.10;;;;;;5069428;28;45900;-66
2023/09/27 09:00:19;;;;;;;3.73;3.40;;;21.20;76.60;;;;;;5084288;28;43543;-66
2023/09/27 09:02:50;;;;;;;3.83;3.60;;;21.20;76.50;;;;;;5081553;28;43483;-66
2023/09/27 09:05:19;;;;;;;4.07;3.70;;;21.30;76.10;;;;;;5084533;28;44002;-66
2023/09/27 09:07:47;;;;;;;4.13;3.70;;;21.40;75.80;;;;;;5077446;28;44080;-66
2023/09/27 09:10:15;;;;;;;3.60;3.40;;;21.40;75.80;;;;;;5077803;28;43512;-66
2023/09/27 09:12:44;;;;;;;3.50;3.27;;;21.30;75.90;;;;;;5076725;28;43504;-66
2023/09/27 09:15:28;;;;;;;4.30;3.43;;;21.30;75.90;;;;;;5076876;28;43441;-66
2023/09/27 09:17:57;;;;;;;3.30;3.10;;;21.30;76.00;;;;;;5074252;28;43944;-66
2023/09/27 09:20:32;;;;;;;3.33;3.10;;;21.30;76.00;;;;;;5057444;28;44979;-65
2023/09/27 09:23:04;;;;;;;3.70;3.40;;;21.20;76.20;;;;;;5080257;28;43420;-65
2023/09/27 09:25:32;;;;;;;3.50;3.20;;;21.20;76.60;;;;;;5080317;28;43390;-65
2023/09/27 09:28:04;;;;;;;3.50;3.30;;;21.20;76.50;;;;;;5078312;28;43833;-65
2023/09/27 09:30:36;;;;;;;3.13;3.00;;;21.20;76.40;;;;;;5084582;28;44020;-66
2023/09/27 09:33:05;;;;;;;3.27;3.07;;;21.20;76.50;;;;;;5070065;28;43412;-67
2023/09/27 09:35:33;;;;;;;3.50;3.23;;;21.20;76.60;;;;;;5068460;28;43614;-67
2023/09/27 09:38:03;;;;;;;3.33;3.13;;;21.20;77.00;;;;;;5064074;28;46153;-66
2023/09/27 09:40:31;;;;;;;3.37;3.10;;;21.20;76.70;;;;;;5075186;28;43575;-66
2023/09/27 09:43:00;;;;;;;3.20;3.00;;;21.30;76.30;;;;;;5061389;28;43409;-66
2023/09/27 09:45:29;;;;;;;3.80;3.20;;;21.40;75.80;;;;;;5075414;28;43467;-66
2023/09/27 09:47:58;;;;;;;3.37;3.17;;;21.50;75.50;;;;;;5081972;28;43853;-67
2023/09/27 09:50:29;;;;;;;3.93;3.63;;;21.50;75.40;;;;;;5090554;28;43396;-71
2023/09/27 09:52:58;;;;;;;3.40;3.20;;;21.50;75.60;;;;;;5076058;28;43906;-71
2023/09/27 09:55:29;;;;;;;2.93;2.83;;;21.40;75.80;;;;;;5075213;28;43388;-71
2023/09/27 09:58:21;;;;;;;2.73;2.63;;;21.40;76.20;;;;;;5075822;28;43868;-72
2023/09/27 10:00:50;;;;;;;2.90;2.70;;;21.30;76.00;;;;;;5053444;28;45621;-72
2023/09/27 10:03:21;;;;;;;3.13;2.93;;;21.30;76.20;;;;;;5068462;28;43435;-72
2023/09/27 10:05:50;;;;;;;3.20;3.00;;;21.20;76.20;;;;;;5068869;28;43971;-71
2023/09/27 10:08:18;;;;;;;3.40;3.20;;;21.20;76.30;;;;;;5071264;28;43657;-73
2023/09/27 10:10:47;;;;;;;2.90;2.77;;;21.20;77.40;;;;;;5084513;28;43897;-73
2023/09/27 10:13:18;;;;;;;2.87;2.77;;;21.20;76.60;;;;;;5078140;28;43816;-72
2023/09/27 10:15:46;;;;;;;2.67;2.57;;;21.20;76.60;;;;;;5083117;28;43457;-72
2023/09/27 10:18:33;;;;;;;2.90;2.80;;;21.20;76.60;;;;;;5087574;28;43619;-72
2023/09/27 10:21:06;;;;;;;3.00;2.80;;;21.20;76.80;;;;;;5068301;28;44127;-72
2023/09/27 10:23:35;;;;;;;2.70;2.60;;;21.10;77.00;;;;;;5073703;28;43475;-72
2023/09/27 10:26:19;;;;;;;3.20;3.00;;;21.20;77.60;;;;;;5056094;28;43615;-72
2023/09/27 10:29:13;;;;;;;2.70;2.60;;;21.20;77.00;;;;;;5063113;28;44716;-72
2023/09/27 10:32:22;;;;;;;2.60;2.50;;;21.20;77.10;;;;;;5079172;28;43726;-71
2023/09/27 10:34:55;;;;;;;2.53;2.43;;;21.10;77.10;;;;;;5067842;28;43586;-69
2023/09/27 10:37:56;;;;;;;3.23;2.93;;;21.10;77.00;;;;;;5067601;28;43553;-72
2023/09/27 10:40:25;;;;;;;3.00;2.80;;;21.30;76.50;;;;;;5006286;28;43596;-72
2023/09/27 10:42:53;;;;;;;2.57;2.47;;;21.40;76.10;;;;;;5007788;28;44041;-72
2023/09/27 10:45:21;;;;;;;2.47;2.37;;;21.50;75.50;;;;;;5019277;28;43979;-72
2023/09/27 10:47:52;;;;;;;2.60;2.50;;;21.60;75.30;;;;;;5085438;28;43966;-71
2023/09/27 10:50:31;;;;;;;2.53;2.43;;;21.60;75.50;;;;;;5088373;28;43945;-71
2023/09/27 10:53:00;;;;;;;2.80;2.70;;;21.50;75.60;;;;;;5081870;28;43463;-72
2023/09/27 10:55:37;;;;;;;2.77;2.67;;;21.50;76.00;;;;;;5080100;28;43439;-72
2023/09/27 10:58:06;;;;;;;2.50;2.40;;;21.50;75.90;;;;;;5082243;28;43384;-71
2023/09/27 11:00:34;;;;;;;2.40;2.40;;;21.40;76.10;;;;;;5088495;27;43840;-67
2023/09/27 11:03:15;;;;;;;2.60;2.50;;;21.40;76.30;;;;;;5094465;27;43351;-67
2023/09/27 11:05:44;;;;;;;2.70;2.60;;;21.30;77.20;;;;;;5085797;28;43548;-66
2023/09/27 11:08:13;;;;;;;2.80;2.70;;;21.30;76.60;;;;;;5076061;28;43366;-66
2023/09/27 11:10:44;;;;;;;2.80;2.70;;;21.30;76.50;;;;;;5087864;28;43639;-66
2023/09/27 11:13:13;;;;;;;2.53;2.43;;;21.30;76.70;;;;;;5090969;28;43446;-66
2023/09/27 11:15:42;;;;;;;2.37;2.37;;;21.30;76.80;;;;;;5066085;28;43423;-66
2023/09/27 11:18:10;;;;;;;2.53;2.43;;;21.30;76.90;;;;;;5092509;28;43557;-66
2023/09/27 11:20:39;;;;;;;2.67;2.57;;;21.20;77.00;;;;;;5067405;28;46124;-65
2023/09/27 11:23:09;;;;;;;2.63;2.53;;;21.20;77.10;;;;;;5090120;28;43476;-67
2023/09/27 11:25:37;;;;;;;2.40;2.30;;;21.20;77.20;;;;;;5090847;28;43343;-66
2023/09/27 11:28:06;;;;;;;2.50;2.40;;;21.20;77.30;;;;;;5075980;28;43371;-66
2023/09/27 11:30:34;;;;;;;2.47;2.37;;;21.10;78.00;;;;;;5078534;28;43755;-66
2023/09/27 11:33:05;;;;;;;2.50;2.40;;;21.10;77.40;;;;;;5080604;28;43702;-68
2023/09/27 11:35:34;;;;;;;2.20;2.10;;;21.10;77.40;;;;;;5087117;28;43572;-67
2023/09/27 11:38:09;;;;;;;2.33;2.33;;;21.10;77.40;;;;;;5088432;28;43437;-68
2023/09/27 11:40:40;;;;;;;2.43;2.33;;;21.10;77.40;;;;;;5080428;28;43879;-66
2023/09/27 11:43:08;;;;;;;2.50;2.40;;;21.20;77.00;;;;;;5088339;28;43396;-66
2023/09/27 11:45:44;;;;;;;2.47;2.37;;;21.30;76.30;;;;;;5086240;28;43459;-66
2023/09/27 11:48:13;;;;;;;2.50;2.40;;;21.50;75.80;;;;;;5074717;28;43427;-67
2023/09/27 11:50:41;;;;;;;2.43;2.23;;;21.60;75.10;;;;;;5066653;28;46195;-66
2023/09/27 11:53:09;;;;;;;2.33;2.23;;;21.90;74.40;;;;;;5073008;28;43380;-66
2023/09/27 11:55:39;;;;;;;2.93;2.80;;;22.10;73.70;;;;;;5088975;28;43403;-66
2023/09/27 11:58:08;;;;;;;2.27;2.27;;;22.20;73.00;;;;;;5089514;28;43382;-66
2023/09/27 12:00:36;;;;;;;2.50;2.30;;;22.40;72.60;;;;;;5084653;28;43686;-67
2023/09/27 12:03:05;;;;;;;2.37;2.27;;;22.50;72.20;;;;;;5083043;28;43462;-67
2023/09/27 12:05:35;;;;;;;2.13;2.03;;;22.60;71.90;;;;;;5088408;28;43494;-66
2023/09/27 12:08:05;;;;;;;2.37;2.27;;;22.70;71.50;;;;;;5084793;28;43491;-66
2023/09/27 12:10:33;;;;;;;2.53;2.40;;;22.70;71.30;;;;;;5085387;28;43599;-66
2023/09/27 12:13:02;;;;;;;2.40;2.30;;;22.70;71.40;;;;;;5085241;28;43416;-66
2023/09/27 12:15:30;;;;;;;2.50;2.40;;;22.50;71.70;;;;;;5084941;28;43447;-67
2023/09/27 12:17:58;;;;;;;2.60;2.50;;;22.40;72.30;;;;;;5090666;28;43694;-67
2023/09/27 12:20:27;;;;;;;2.30;2.20;;;22.30;72.70;;;;;;5045732;28;45679;-66
2023/09/27 12:23:09;;;;;;;2.20;2.20;;;22.20;72.90;;;;;;5081975;28;43408;-65
2023/09/27 12:25:38;;;;;;;2.20;2.10;;;22.00;73.60;;;;;;5087930;28;43404;-65
2023/09/27 12:28:08;;;;;;;2.40;2.30;;;21.90;74.20;;;;;;5071818;28;43393;-66
2023/09/27 12:30:37;;;;;;;2.10;2.10;;;21.90;74.30;;;;;;5084537;28;43865;-66
2023/09/27 12:33:05;;;;;;;2.00;1.90;;;21.80;74.50;;;;;;5075107;28;44767;-66
2023/09/27 12:35:33;;;;;;;1.90;1.80;;;21.70;74.90;;;;;;5087444;28;43718;-66
2023/09/27 12:38:03;;;;;;;2.27;2.27;;;21.60;75.20;;;;;;5091401;28;43844;-64
2023/09/27 12:40:32;;;;;;;2.03;2.03;;;21.60;75.40;;;;;;5084026;28;43870;-66
2023/09/27 12:43:00;;;;;;;2.37;2.27;;;21.60;75.30;;;;;;5086663;28;43407;-65
2023/09/27 12:45:30;;;;;;;2.50;2.40;;;21.60;75.10;;;;;;5086900;28;43423;-66
2023/09/27 12:47:58;;;;;;;2.27;2.20;;;21.70;74.80;;;;;;5076019;28;43755;-66
2023/09/27 12:50:27;;;;;;;2.40;2.30;;;21.80;74.30;;;;;;5076326;28;43704;-68
2023/09/27 12:52:55;;;;;;;2.10;2.00;;;21.90;73.70;;;;;;5083772;28;43423;-68
2023/09/27 12:55:23;;;;;;;2.33;2.23;;;22.00;73.80;;;;;;5073829;28;43428;-66
2023/09/27 12:57:52;;;;;;;2.30;2.20;;;21.90;74.30;;;;;;5083426;28;43500;-68
2023/09/27 13:00:20;;;;;;;2.10;2.00;;;21.80;74.60;;;;;;5087426;28;43607;-66